sensor_id;sensor_type;location;lat;lon;timestamp;P1;durP1;ratioP1;P2;durP2;ratioP2
18405;SDS011;9329;48.720;9.588;2022-08-21T00:01:43;66.63;;;4.87;;
18405;SDS011;9329;48.720;9.588;2022-08-21T00:04:12;10.82;;;4.50;;
18405;SDS011;9329;48.720;9.588;2022-08-21T00:06:39;50.83;;;5.30;;
18405;SDS011;9329;48.720;9.588;2022-08-21T00:09:07;88.45;;;5.50;;
18405;SDS011;9329;48.720;9.588;2022-08-21T00:11:36;38.03;;;5.10;;
18405;SDS011;9329;48.720;9.588;2022-08-21T00:14:05;25.63;;;4.67;;
18405;SDS011;9329;48.720;9.588;2022-08-21T00:16:34;31.50;;;4.82;;
18405;SDS011;9329;48.720;9.588;2022-08-21T00:19:02;12.52;;;4.47;;
18405;SDS011;9329;48.720;9.588;2022-08-21T00:21:30;21.67;;;4.23;;
18405;SDS011;9329;48.720;9.588;2022-08-21T00:23:57;21.63;;;3.72;;
18405;SDS011;9329;48.720;9.588;2022-08-21T00:26:24;7.68;;;3.58;;
18405;SDS011;9329;48.720;9.588;2022-08-21T00:28:51;12.70;;;3.70;;
18405;SDS011;9329;48.720;9.588;2022-08-21T00:31:19;11.98;;;3.92;;
18405;SDS011;9329;48.720;9.588;2022-08-21T00:33:46;47.72;;;4.43;;
18405;SDS011;9329;48.720;9.588;2022-08-21T00:36:13;45.35;;;4.35;;
18405;SDS011;9329;48.720;9.588;2022-08-21T00:38:41;17.33;;;4.63;;
18405;SDS011;9329;48.720;9.588;2022-08-21T00:41:09;9.27;;;4.80;;
18405;SDS011;9329;48.720;9.588;2022-08-21T00:43:37;10.55;;;4.13;;
18405;SDS011;9329;48.720;9.588;2022-08-21T00:46:05;9.27;;;3.77;;
18405;SDS011;9329;48.720;9.588;2022-08-21T00:48:33;9.73;;;3.60;;
18405;SDS011;9329;48.720;9.588;2022-08-21T00:51:03;5.78;;;3.10;;
18405;SDS011;9329;48.720;9.588;2022-08-21T00:53:32;7.80;;;2.90;;
18405;SDS011;9329;48.720;9.588;2022-08-21T00:56:03;10.18;;;2.65;;
18405;SDS011;9329;48.720;9.588;2022-08-21T00:58:33;17.15;;;3.28;;
18405;SDS011;9329;48.720;9.588;2022-08-21T01:01:03;9.52;;;2.80;;
18405;SDS011;9329;48.720;9.588;2022-08-21T01:03:32;14.25;;;2.97;;
18405;SDS011;9329;48.720;9.588;2022-08-21T01:06:02;34.80;;;3.53;;
18405;SDS011;9329;48.720;9.588;2022-08-21T01:08:29;69.38;;;4.72;;
18405;SDS011;9329;48.720;9.588;2022-08-21T01:10:59;78.50;;;5.07;;
18405;SDS011;9329;48.720;9.588;2022-08-21T01:13:30;31.38;;;5.00;;
18405;SDS011;9329;48.720;9.588;2022-08-21T01:16:00;14.55;;;4.32;;
18405;SDS011;9329;48.720;9.588;2022-08-21T01:18:31;6.75;;;3.53;;
18405;SDS011;9329;48.720;9.588;2022-08-21T01:21:01;8.02;;;3.45;;
18405;SDS011;9329;48.720;9.588;2022-08-21T01:23:33;3.80;;;2.80;;
18405;SDS011;9329;48.720;9.588;2022-08-21T01:26:01;9.18;;;2.80;;
18405;SDS011;9329;48.720;9.588;2022-08-21T01:28:28;6.53;;;2.60;;
18405;SDS011;9329;48.720;9.588;2022-08-21T01:30:59;5.65;;;2.58;;
18405;SDS011;9329;48.720;9.588;2022-08-21T01:33:29;12.10;;;3.00;;
18405;SDS011;9329;48.720;9.588;2022-08-21T01:35:56;6.35;;;3.05;;
18405;SDS011;9329;48.720;9.588;2022-08-21T01:38:24;5.50;;;3.45;;
18405;SDS011;9329;48.720;9.588;2022-08-21T01:40:53;22.93;;;3.23;;
18405;SDS011;9329;48.720;9.588;2022-08-21T01:43:20;7.67;;;2.73;;
18405;SDS011;9329;48.720;9.588;2022-08-21T01:45:47;7.32;;;3.05;;
18405;SDS011;9329;48.720;9.588;2022-08-21T01:48:14;10.82;;;3.38;;
18405;SDS011;9329;48.720;9.588;2022-08-21T01:50:41;8.00;;;3.10;;
18405;SDS011;9329;48.720;9.588;2022-08-21T01:53:08;31.55;;;3.58;;
18405;SDS011;9329;48.720;9.588;2022-08-21T01:55:36;8.82;;;2.97;;
18405;SDS011;9329;48.720;9.588;2022-08-21T01:58:03;5.35;;;2.60;;
18405;SDS011;9329;48.720;9.588;2022-08-21T02:00:30;4.18;;;2.50;;
18405;SDS011;9329;48.720;9.588;2022-08-21T02:02:57;3.67;;;2.42;;
18405;SDS011;9329;48.720;9.588;2022-08-21T02:05:24;4.00;;;2.78;;
18405;SDS011;9329;48.720;9.588;2022-08-21T02:07:52;10.75;;;3.00;;
18405;SDS011;9329;48.720;9.588;2022-08-21T02:10:22;28.48;;;2.85;;
18405;SDS011;9329;48.720;9.588;2022-08-21T02:12:53;17.40;;;2.90;;
18405;SDS011;9329;48.720;9.588;2022-08-21T02:15:21;5.80;;;2.88;;
18405;SDS011;9329;48.720;9.588;2022-08-21T02:17:49;5.70;;;2.80;;
18405;SDS011;9329;48.720;9.588;2022-08-21T02:20:20;5.03;;;2.80;;
18405;SDS011;9329;48.720;9.588;2022-08-21T02:22:49;6.20;;;2.50;;
18405;SDS011;9329;48.720;9.588;2022-08-21T02:25:16;7.75;;;2.60;;
18405;SDS011;9329;48.720;9.588;2022-08-21T02:27:45;23.63;;;3.10;;
18405;SDS011;9329;48.720;9.588;2022-08-21T02:30:15;10.63;;;2.58;;
18405;SDS011;9329;48.720;9.588;2022-08-21T02:32:44;4.32;;;2.60;;
18405;SDS011;9329;48.720;9.588;2022-08-21T02:35:11;7.07;;;2.40;;
18405;SDS011;9329;48.720;9.588;2022-08-21T02:37:43;5.60;;;1.87;;
18405;SDS011;9329;48.720;9.588;2022-08-21T02:40:11;5.60;;;2.10;;
18405;SDS011;9329;48.720;9.588;2022-08-21T02:42:39;6.60;;;2.00;;
18405;SDS011;9329;48.720;9.588;2022-08-21T02:45:06;10.93;;;1.88;;
18405;SDS011;9329;48.720;9.588;2022-08-21T02:47:35;12.82;;;2.20;;
18405;SDS011;9329;48.720;9.588;2022-08-21T02:50:03;6.97;;;2.22;;
18405;SDS011;9329;48.720;9.588;2022-08-21T02:52:30;7.20;;;2.40;;
18405;SDS011;9329;48.720;9.588;2022-08-21T02:54:58;3.30;;;2.13;;
18405;SDS011;9329;48.720;9.588;2022-08-21T02:57:25;4.32;;;2.30;;
18405;SDS011;9329;48.720;9.588;2022-08-21T02:59:52;3.67;;;2.10;;
18405;SDS011;9329;48.720;9.588;2022-08-21T03:02:19;3.53;;;2.03;;
18405;SDS011;9329;48.720;9.588;2022-08-21T03:04:48;2.50;;;2.00;;
18405;SDS011;9329;48.720;9.588;2022-08-21T03:07:15;2.33;;;2.10;;
18405;SDS011;9329;48.720;9.588;2022-08-21T03:09:42;2.90;;;2.63;;
18405;SDS011;9329;48.720;9.588;2022-08-21T03:12:10;5.03;;;2.60;;
18405;SDS011;9329;48.720;9.588;2022-08-21T03:14:37;7.00;;;3.05;;
18405;SDS011;9329;48.720;9.588;2022-08-21T03:17:04;6.50;;;2.90;;
18405;SDS011;9329;48.720;9.588;2022-08-21T03:19:32;19.05;;;3.28;;
18405;SDS011;9329;48.720;9.588;2022-08-21T03:22:00;4.87;;;2.77;;
18405;SDS011;9329;48.720;9.588;2022-08-21T03:24:27;4.18;;;2.60;;
18405;SDS011;9329;48.720;9.588;2022-08-21T03:26:54;20.63;;;2.83;;
18405;SDS011;9329;48.720;9.588;2022-08-21T03:29:22;4.90;;;2.55;;
18405;SDS011;9329;48.720;9.588;2022-08-21T03:31:48;9.60;;;2.80;;
18405;SDS011;9329;48.720;9.588;2022-08-21T03:34:18;5.25;;;2.70;;
18405;SDS011;9329;48.720;9.588;2022-08-21T03:36:45;20.10;;;3.00;;
18405;SDS011;9329;48.720;9.588;2022-08-21T03:39:15;5.03;;;3.30;;
18405;SDS011;9329;48.720;9.588;2022-08-21T03:41:43;6.90;;;3.15;;
18405;SDS011;9329;48.720;9.588;2022-08-21T03:44:11;6.28;;;3.30;;
18405;SDS011;9329;48.720;9.588;2022-08-21T03:46:38;8.98;;;3.25;;
18405;SDS011;9329;48.720;9.588;2022-08-21T03:49:09;18.30;;;3.38;;
18405;SDS011;9329;48.720;9.588;2022-08-21T03:51:36;9.02;;;3.60;;
18405;SDS011;9329;48.720;9.588;2022-08-21T03:54:03;12.43;;;3.20;;
18405;SDS011;9329;48.720;9.588;2022-08-21T03:56:31;10.77;;;3.00;;
18405;SDS011;9329;48.720;9.588;2022-08-21T03:58:58;19.97;;;2.80;;
18405;SDS011;9329;48.720;9.588;2022-08-21T04:01:27;7.63;;;2.83;;
18405;SDS011;9329;48.720;9.588;2022-08-21T04:03:54;18.30;;;3.10;;
18405;SDS011;9329;48.720;9.588;2022-08-21T04:06:21;14.73;;;2.65;;
18405;SDS011;9329;48.720;9.588;2022-08-21T04:08:48;22.38;;;2.92;;
18405;SDS011;9329;48.720;9.588;2022-08-21T04:11:15;6.47;;;2.40;;
18405;SDS011;9329;48.720;9.588;2022-08-21T04:16:14;8.90;;;1.90;;
18405;SDS011;9329;48.720;9.588;2022-08-21T04:18:41;2.78;;;1.70;;
18405;SDS011;9329;48.720;9.588;2022-08-21T04:21:09;2.88;;;1.70;;
18405;SDS011;9329;48.720;9.588;2022-08-21T04:23:37;3.15;;;1.58;;
18405;SDS011;9329;48.720;9.588;2022-08-21T04:26:04;2.40;;;1.50;;
18405;SDS011;9329;48.720;9.588;2022-08-21T04:28:31;3.03;;;1.60;;
18405;SDS011;9329;48.720;9.588;2022-08-21T04:30:58;2.08;;;1.58;;
18405;SDS011;9329;48.720;9.588;2022-08-21T04:33:27;3.10;;;2.00;;
18405;SDS011;9329;48.720;9.588;2022-08-21T04:35:54;2.55;;;1.90;;
18405;SDS011;9329;48.720;9.588;2022-08-21T04:38:21;3.28;;;1.98;;
18405;SDS011;9329;48.720;9.588;2022-08-21T04:40:48;3.70;;;2.05;;
18405;SDS011;9329;48.720;9.588;2022-08-21T04:43:16;3.97;;;2.10;;
18405;SDS011;9329;48.720;9.588;2022-08-21T04:45:44;4.10;;;2.27;;
18405;SDS011;9329;48.720;9.588;2022-08-21T04:48:13;2.78;;;1.90;;
18405;SDS011;9329;48.720;9.588;2022-08-21T04:50:45;4.72;;;2.20;;
18405;SDS011;9329;48.720;9.588;2022-08-21T04:53:17;3.88;;;1.90;;
18405;SDS011;9329;48.720;9.588;2022-08-21T04:55:47;3.53;;;2.00;;
18405;SDS011;9329;48.720;9.588;2022-08-21T04:58:17;2.70;;;1.80;;
18405;SDS011;9329;48.720;9.588;2022-08-21T05:00:46;3.22;;;1.70;;
18405;SDS011;9329;48.720;9.588;2022-08-21T05:03:14;2.87;;;1.90;;
18405;SDS011;9329;48.720;9.588;2022-08-21T05:05:45;2.92;;;1.80;;
18405;SDS011;9329;48.720;9.588;2022-08-21T05:08:14;2.20;;;1.90;;
18405;SDS011;9329;48.720;9.588;2022-08-21T05:10:44;3.80;;;2.10;;
18405;SDS011;9329;48.720;9.588;2022-08-21T05:13:12;3.05;;;2.00;;
18405;SDS011;9329;48.720;9.588;2022-08-21T05:15:39;3.22;;;2.30;;
18405;SDS011;9329;48.720;9.588;2022-08-21T05:18:08;3.10;;;2.10;;
18405;SDS011;9329;48.720;9.588;2022-08-21T05:20:36;3.72;;;2.20;;
18405;SDS011;9329;48.720;9.588;2022-08-21T05:23:07;2.20;;;2.00;;
18405;SDS011;9329;48.720;9.588;2022-08-21T05:25:35;2.40;;;2.20;;
18405;SDS011;9329;48.720;9.588;2022-08-21T05:28:03;2.38;;;2.05;;
18405;SDS011;9329;48.720;9.588;2022-08-21T05:30:30;3.30;;;2.20;;
18405;SDS011;9329;48.720;9.588;2022-08-21T05:32:58;2.97;;;2.20;;
18405;SDS011;9329;48.720;9.588;2022-08-21T05:35:26;2.80;;;2.10;;
18405;SDS011;9329;48.720;9.588;2022-08-21T05:37:54;2.28;;;2.08;;
18405;SDS011;9329;48.720;9.588;2022-08-21T05:40:24;2.50;;;2.30;;
18405;SDS011;9329;48.720;9.588;2022-08-21T05:42:52;2.50;;;2.30;;
18405;SDS011;9329;48.720;9.588;2022-08-21T05:45:20;2.47;;;2.20;;
18405;SDS011;9329;48.720;9.588;2022-08-21T05:47:47;3.45;;;2.00;;
18405;SDS011;9329;48.720;9.588;2022-08-21T05:50:14;2.50;;;1.98;;
18405;SDS011;9329;48.720;9.588;2022-08-21T05:52:41;4.07;;;2.30;;
18405;SDS011;9329;48.720;9.588;2022-08-21T05:55:08;3.40;;;2.63;;
18405;SDS011;9329;48.720;9.588;2022-08-21T05:57:37;3.30;;;2.50;;
18405;SDS011;9329;48.720;9.588;2022-08-21T06:00:06;4.43;;;2.90;;
18405;SDS011;9329;48.720;9.588;2022-08-21T06:02:38;4.40;;;3.20;;
18405;SDS011;9329;48.720;9.588;2022-08-21T06:05:05;3.55;;;3.00;;
18405;SDS011;9329;48.720;9.588;2022-08-21T06:07:32;4.40;;;3.05;;
18405;SDS011;9329;48.720;9.588;2022-08-21T06:09:59;5.30;;;3.10;;
18405;SDS011;9329;48.720;9.588;2022-08-21T06:12:26;7.55;;;3.15;;
18405;SDS011;9329;48.720;9.588;2022-08-21T06:14:55;4.63;;;3.17;;
18405;SDS011;9329;48.720;9.588;2022-08-21T06:17:22;6.50;;;3.20;;
18405;SDS011;9329;48.720;9.588;2022-08-21T06:19:50;6.72;;;3.30;;
18405;SDS011;9329;48.720;9.588;2022-08-21T06:22:18;7.38;;;3.10;;
18405;SDS011;9329;48.720;9.588;2022-08-21T06:24:45;4.03;;;2.90;;
18405;SDS011;9329;48.720;9.588;2022-08-21T06:27:13;4.95;;;3.33;;
18405;SDS011;9329;48.720;9.588;2022-08-21T06:29:40;4.90;;;3.20;;
18405;SDS011;9329;48.720;9.588;2022-08-21T06:32:10;5.50;;;3.08;;
18405;SDS011;9329;48.720;9.588;2022-08-21T06:34:38;6.63;;;3.35;;
18405;SDS011;9329;48.720;9.588;2022-08-21T06:37:07;3.30;;;3.00;;
18405;SDS011;9329;48.720;9.588;2022-08-21T06:39:34;7.10;;;4.23;;
18405;SDS011;9329;48.720;9.588;2022-08-21T06:42:01;6.93;;;3.50;;
18405;SDS011;9329;48.720;9.588;2022-08-21T06:44:29;3.63;;;3.10;;
18405;SDS011;9329;48.720;9.588;2022-08-21T06:46:56;9.07;;;3.63;;
18405;SDS011;9329;48.720;9.588;2022-08-21T06:49:25;6.70;;;3.60;;
18405;SDS011;9329;48.720;9.588;2022-08-21T06:51:52;8.40;;;3.43;;
18405;SDS011;9329;48.720;9.588;2022-08-21T06:54:19;4.97;;;3.73;;
18405;SDS011;9329;48.720;9.588;2022-08-21T06:56:46;8.13;;;3.60;;
18405;SDS011;9329;48.720;9.588;2022-08-21T06:59:13;7.00;;;3.50;;
18405;SDS011;9329;48.720;9.588;2022-08-21T07:01:40;4.13;;;3.37;;
18405;SDS011;9329;48.720;9.588;2022-08-21T07:04:07;5.50;;;3.70;;
18405;SDS011;9329;48.720;9.588;2022-08-21T07:06:36;4.23;;;3.70;;
18405;SDS011;9329;48.720;9.588;2022-08-21T07:09:03;7.10;;;3.37;;
18405;SDS011;9329;48.720;9.588;2022-08-21T07:11:30;4.90;;;3.23;;
18405;SDS011;9329;48.720;9.588;2022-08-21T07:13:57;4.53;;;3.40;;
18405;SDS011;9329;48.720;9.588;2022-08-21T07:16:24;7.90;;;3.20;;
18405;SDS011;9329;48.720;9.588;2022-08-21T07:18:51;6.03;;;3.33;;
18405;SDS011;9329;48.720;9.588;2022-08-21T07:21:18;6.47;;;3.47;;
18405;SDS011;9329;48.720;9.588;2022-08-21T07:23:48;4.20;;;3.30;;
18405;SDS011;9329;48.720;9.588;2022-08-21T07:26:18;5.60;;;3.37;;
18405;SDS011;9329;48.720;9.588;2022-08-21T07:28:47;6.10;;;3.53;;
18405;SDS011;9329;48.720;9.588;2022-08-21T07:31:15;6.80;;;3.60;;
18405;SDS011;9329;48.720;9.588;2022-08-21T07:33:43;5.95;;;3.50;;
18405;SDS011;9329;48.720;9.588;2022-08-21T07:36:11;4.38;;;3.15;;
18405;SDS011;9329;48.720;9.588;2022-08-21T07:38:38;5.05;;;3.58;;
18405;SDS011;9329;48.720;9.588;2022-08-21T07:41:08;5.05;;;3.08;;
18405;SDS011;9329;48.720;9.588;2022-08-21T07:43:40;11.43;;;6.45;;
18405;SDS011;9329;48.720;9.588;2022-08-21T07:46:07;8.02;;;5.78;;
18405;SDS011;9329;48.720;9.588;2022-08-21T07:48:34;4.75;;;3.30;;
18405;SDS011;9329;48.720;9.588;2022-08-21T07:51:02;4.18;;;3.10;;
18405;SDS011;9329;48.720;9.588;2022-08-21T07:53:32;6.07;;;2.97;;
18405;SDS011;9329;48.720;9.588;2022-08-21T07:56:00;8.23;;;3.30;;
18405;SDS011;9329;48.720;9.588;2022-08-21T07:58:28;6.60;;;2.72;;
18405;SDS011;9329;48.720;9.588;2022-08-21T08:00:55;3.85;;;2.90;;
18405;SDS011;9329;48.720;9.588;2022-08-21T08:03:24;4.63;;;2.78;;
18405;SDS011;9329;48.720;9.588;2022-08-21T08:05:51;4.80;;;3.00;;
18405;SDS011;9329;48.720;9.588;2022-08-21T08:08:18;6.23;;;3.27;;
18405;SDS011;9329;48.720;9.588;2022-08-21T08:10:45;4.80;;;2.90;;
18405;SDS011;9329;48.720;9.588;2022-08-21T08:13:14;12.55;;;7.38;;
18405;SDS011;9329;48.720;9.588;2022-08-21T08:15:42;12.07;;;3.85;;
18405;SDS011;9329;48.720;9.588;2022-08-21T08:18:10;3.53;;;2.85;;
18405;SDS011;9329;48.720;9.588;2022-08-21T08:20:38;5.38;;;2.97;;
18405;SDS011;9329;48.720;9.588;2022-08-21T08:23:05;5.00;;;3.00;;
18405;SDS011;9329;48.720;9.588;2022-08-21T08:25:32;5.97;;;3.25;;
18405;SDS011;9329;48.720;9.588;2022-08-21T08:28:00;4.25;;;2.85;;
18405;SDS011;9329;48.720;9.588;2022-08-21T08:30:27;7.97;;;3.28;;
18405;SDS011;9329;48.720;9.588;2022-08-21T08:32:55;5.18;;;3.40;;
18405;SDS011;9329;48.720;9.588;2022-08-21T08:35:24;5.55;;;3.08;;
18405;SDS011;9329;48.720;9.588;2022-08-21T08:37:53;8.33;;;3.50;;
18405;SDS011;9329;48.720;9.588;2022-08-21T08:40:22;6.23;;;3.60;;
18405;SDS011;9329;48.720;9.588;2022-08-21T08:42:58;7.07;;;3.50;;
18405;SDS011;9329;48.720;9.588;2022-08-21T08:45:25;8.68;;;3.70;;
18405;SDS011;9329;48.720;9.588;2022-08-21T08:47:58;7.03;;;3.33;;
18405;SDS011;9329;48.720;9.588;2022-08-21T08:50:32;8.10;;;3.60;;
18405;SDS011;9329;48.720;9.588;2022-08-21T08:53:06;8.05;;;3.30;;
18405;SDS011;9329;48.720;9.588;2022-08-21T08:55:38;6.43;;;3.60;;
18405;SDS011;9329;48.720;9.588;2022-08-21T08:58:07;8.65;;;3.95;;
18405;SDS011;9329;48.720;9.588;2022-08-21T09:00:38;7.15;;;3.60;;
18405;SDS011;9329;48.720;9.588;2022-08-21T09:03:06;6.90;;;3.80;;
18405;SDS011;9329;48.720;9.588;2022-08-21T09:05:37;7.35;;;3.85;;
18405;SDS011;9329;48.720;9.588;2022-08-21T09:08:18;5.35;;;3.50;;
18405;SDS011;9329;48.720;9.588;2022-08-21T09:10:58;6.82;;;3.50;;
18405;SDS011;9329;48.720;9.588;2022-08-21T09:13:32;9.07;;;3.83;;
18405;SDS011;9329;48.720;9.588;2022-08-21T09:16:09;7.28;;;3.88;;
18405;SDS011;9329;48.720;9.588;2022-08-21T09:18:51;8.82;;;3.80;;
18405;SDS011;9329;48.720;9.588;2022-08-21T09:21:25;8.10;;;3.80;;
18405;SDS011;9329;48.720;9.588;2022-08-21T09:24:02;6.93;;;3.50;;
18405;SDS011;9329;48.720;9.588;2022-08-21T09:26:44;6.87;;;3.83;;
18405;SDS011;9329;48.720;9.588;2022-08-21T09:29:15;7.82;;;3.30;;
18405;SDS011;9329;48.720;9.588;2022-08-21T09:31:43;6.07;;;3.50;;
18405;SDS011;9329;48.720;9.588;2022-08-21T09:34:12;6.85;;;3.42;;
18405;SDS011;9329;48.720;9.588;2022-08-21T09:36:50;6.47;;;3.30;;
18405;SDS011;9329;48.720;9.588;2022-08-21T09:39:22;6.70;;;3.67;;
18405;SDS011;9329;48.720;9.588;2022-08-21T09:41:55;7.30;;;3.50;;
18405;SDS011;9329;48.720;9.588;2022-08-21T09:44:25;7.03;;;3.70;;
18405;SDS011;9329;48.720;9.588;2022-08-21T09:46:53;6.15;;;3.22;;
18405;SDS011;9329;48.720;9.588;2022-08-21T09:49:28;10.43;;;3.78;;
18405;SDS011;9329;48.720;9.588;2022-08-21T09:51:56;7.10;;;3.53;;
18405;SDS011;9329;48.720;9.588;2022-08-21T09:54:26;5.22;;;3.22;;
18405;SDS011;9329;48.720;9.588;2022-08-21T09:56:58;7.45;;;3.40;;
18405;SDS011;9329;48.720;9.588;2022-08-21T09:59:44;5.55;;;3.13;;
18405;SDS011;9329;48.720;9.588;2022-08-21T10:02:20;5.78;;;3.25;;
18405;SDS011;9329;48.720;9.588;2022-08-21T10:04:53;6.97;;;3.40;;
18405;SDS011;9329;48.720;9.588;2022-08-21T10:07:22;7.40;;;3.50;;
18405;SDS011;9329;48.720;9.588;2022-08-21T10:09:58;8.82;;;3.40;;
18405;SDS011;9329;48.720;9.588;2022-08-21T10:12:28;6.60;;;3.10;;
18405;SDS011;9329;48.720;9.588;2022-08-21T10:15:01;7.07;;;3.10;;
18405;SDS011;9329;48.720;9.588;2022-08-21T10:17:41;8.55;;;3.00;;
18405;SDS011;9329;48.720;9.588;2022-08-21T10:20:20;7.93;;;3.10;;
18405;SDS011;9329;48.720;9.588;2022-08-21T10:22:54;8.73;;;3.25;;
18405;SDS011;9329;48.720;9.588;2022-08-21T10:25:31;7.50;;;3.00;;
18405;SDS011;9329;48.720;9.588;2022-08-21T10:28:04;8.23;;;3.20;;
18405;SDS011;9329;48.720;9.588;2022-08-21T10:30:41;8.63;;;3.17;;
18405;SDS011;9329;48.720;9.588;2022-08-21T10:33:21;8.02;;;3.10;;
18405;SDS011;9329;48.720;9.588;2022-08-21T10:35:58;5.93;;;3.10;;
18405;SDS011;9329;48.720;9.588;2022-08-21T10:41:32;7.38;;;3.15;;
18405;SDS011;9329;48.720;9.588;2022-08-21T10:44:13;6.47;;;2.85;;
18405;SDS011;9329;48.720;9.588;2022-08-21T10:46:51;7.35;;;3.10;;
18405;SDS011;9329;48.720;9.588;2022-08-21T10:49:25;5.85;;;2.95;;
18405;SDS011;9329;48.720;9.588;2022-08-21T10:52:07;7.67;;;3.27;;
18405;SDS011;9329;48.720;9.588;2022-08-21T10:54:46;5.35;;;2.70;;
18405;SDS011;9329;48.720;9.588;2022-08-21T10:57:19;8.90;;;3.27;;
18405;SDS011;9329;48.720;9.588;2022-08-21T10:59:54;8.07;;;3.33;;
18405;SDS011;9329;48.720;9.588;2022-08-21T11:02:26;6.10;;;2.73;;
18405;SDS011;9329;48.720;9.588;2022-08-21T11:05:01;7.10;;;3.15;;
18405;SDS011;9329;48.720;9.588;2022-08-21T11:07:33;8.27;;;3.13;;
18405;SDS011;9329;48.720;9.588;2022-08-21T11:10:05;6.30;;;2.88;;
18405;SDS011;9329;48.720;9.588;2022-08-21T11:12:40;9.35;;;3.00;;
18405;SDS011;9329;48.720;9.588;2022-08-21T11:15:15;6.13;;;2.83;;
18405;SDS011;9329;48.720;9.588;2022-08-21T11:18:14;6.07;;;2.70;;
18405;SDS011;9329;48.720;9.588;2022-08-21T11:20:49;6.72;;;3.00;;
18405;SDS011;9329;48.720;9.588;2022-08-21T11:23:25;6.35;;;2.85;;
18405;SDS011;9329;48.720;9.588;2022-08-21T11:25:58;5.80;;;2.80;;
18405;SDS011;9329;48.720;9.588;2022-08-21T11:28:29;7.28;;;2.95;;
18405;SDS011;9329;48.720;9.588;2022-08-21T11:31:02;6.97;;;2.93;;
18405;SDS011;9329;48.720;9.588;2022-08-21T11:33:44;6.07;;;2.70;;
18405;SDS011;9329;48.720;9.588;2022-08-21T11:36:22;6.80;;;3.00;;
18405;SDS011;9329;48.720;9.588;2022-08-21T11:38:57;5.60;;;2.80;;
18405;SDS011;9329;48.720;9.588;2022-08-21T11:41:31;8.43;;;2.70;;
18405;SDS011;9329;48.720;9.588;2022-08-21T11:44:06;6.18;;;2.88;;
18405;SDS011;9329;48.720;9.588;2022-08-21T11:46:41;6.30;;;2.80;;
18405;SDS011;9329;48.720;9.588;2022-08-21T11:52:11;3.75;;;2.33;;
18405;SDS011;9329;48.720;9.588;2022-08-21T11:54:45;6.97;;;2.80;;
18405;SDS011;9329;48.720;9.588;2022-08-21T11:57:20;6.47;;;2.67;;
18405;SDS011;9329;48.720;9.588;2022-08-21T11:59:51;6.07;;;2.80;;
18405;SDS011;9329;48.720;9.588;2022-08-21T12:02:28;6.43;;;2.70;;
18405;SDS011;9329;48.720;9.588;2022-08-21T12:05:03;6.90;;;2.70;;
18405;SDS011;9329;48.720;9.588;2022-08-21T12:07:33;7.85;;;2.70;;
18405;SDS011;9329;48.720;9.588;2022-08-21T12:10:06;5.45;;;2.67;;
18405;SDS011;9329;48.720;9.588;2022-08-21T12:12:35;5.78;;;2.72;;
18405;SDS011;9329;48.720;9.588;2022-08-21T12:15:13;5.70;;;2.42;;
18405;SDS011;9329;48.720;9.588;2022-08-21T12:17:54;5.13;;;2.60;;
18405;SDS011;9329;48.720;9.588;2022-08-21T12:23:18;4.85;;;2.33;;
18405;SDS011;9329;48.720;9.588;2022-08-21T12:28:45;5.43;;;2.38;;
18405;SDS011;9329;48.720;9.588;2022-08-21T12:31:17;4.30;;;2.00;;
18405;SDS011;9329;48.720;9.588;2022-08-21T12:33:49;3.38;;;2.00;;
18405;SDS011;9329;48.720;9.588;2022-08-21T12:36:21;3.90;;;1.83;;
18405;SDS011;9329;48.720;9.588;2022-08-21T12:38:51;3.95;;;1.85;;
18405;SDS011;9329;48.720;9.588;2022-08-21T12:41:24;3.65;;;1.90;;
18405;SDS011;9329;48.720;9.588;2022-08-21T12:43:57;3.40;;;1.88;;
18405;SDS011;9329;48.720;9.588;2022-08-21T12:46:27;3.13;;;1.90;;
18405;SDS011;9329;48.720;9.588;2022-08-21T12:49:02;3.20;;;1.83;;
18405;SDS011;9329;48.720;9.588;2022-08-21T12:51:36;3.13;;;1.77;;
18405;SDS011;9329;48.720;9.588;2022-08-21T12:54:21;4.40;;;1.90;;
18405;SDS011;9329;48.720;9.588;2022-08-21T12:56:56;3.73;;;1.70;;
18405;SDS011;9329;48.720;9.588;2022-08-21T12:59:25;2.78;;;1.70;;
18405;SDS011;9329;48.720;9.588;2022-08-21T13:01:52;4.20;;;1.67;;
18405;SDS011;9329;48.720;9.588;2022-08-21T13:04:22;4.88;;;1.63;;
18405;SDS011;9329;48.720;9.588;2022-08-21T13:06:55;5.57;;;1.90;;
18405;SDS011;9329;48.720;9.588;2022-08-21T13:09:26;4.33;;;1.70;;
18405;SDS011;9329;48.720;9.588;2022-08-21T13:11:58;4.72;;;1.90;;
18405;SDS011;9329;48.720;9.588;2022-08-21T13:14:28;4.25;;;1.90;;
18405;SDS011;9329;48.720;9.588;2022-08-21T13:16:58;3.15;;;1.65;;
18405;SDS011;9329;48.720;9.588;2022-08-21T13:19:27;3.28;;;1.67;;
18405;SDS011;9329;48.720;9.588;2022-08-21T13:21:55;3.80;;;1.57;;
18405;SDS011;9329;48.720;9.588;2022-08-21T13:24:24;4.25;;;1.48;;
18405;SDS011;9329;48.720;9.588;2022-08-21T13:26:53;3.40;;;1.52;;
18405;SDS011;9329;48.720;9.588;2022-08-21T13:29:23;3.10;;;1.50;;
18405;SDS011;9329;48.720;9.588;2022-08-21T13:31:55;4.07;;;1.50;;
18405;SDS011;9329;48.720;9.588;2022-08-21T13:34:25;3.45;;;1.70;;
18405;SDS011;9329;48.720;9.588;2022-08-21T13:36:57;4.93;;;1.70;;
18405;SDS011;9329;48.720;9.588;2022-08-21T13:39:26;3.50;;;1.80;;
18405;SDS011;9329;48.720;9.588;2022-08-21T13:41:54;4.22;;;1.70;;
18405;SDS011;9329;48.720;9.588;2022-08-21T13:44:31;5.07;;;1.80;;
18405;SDS011;9329;48.720;9.588;2022-08-21T13:47:02;3.17;;;1.60;;
18405;SDS011;9329;48.720;9.588;2022-08-21T13:49:33;3.03;;;1.70;;
18405;SDS011;9329;48.720;9.588;2022-08-21T13:52:03;3.93;;;1.70;;
18405;SDS011;9329;48.720;9.588;2022-08-21T13:54:40;4.32;;;1.50;;
18405;SDS011;9329;48.720;9.588;2022-08-21T13:57:15;4.00;;;1.60;;
18405;SDS011;9329;48.720;9.588;2022-08-21T13:59:44;3.30;;;1.50;;
18405;SDS011;9329;48.720;9.588;2022-08-21T14:02:13;5.05;;;1.60;;
18405;SDS011;9329;48.720;9.588;2022-08-21T14:04:43;4.07;;;1.80;;
18405;SDS011;9329;48.720;9.588;2022-08-21T14:07:18;4.50;;;1.67;;
18405;SDS011;9329;48.720;9.588;2022-08-21T14:09:47;5.20;;;1.77;;
18405;SDS011;9329;48.720;9.588;2022-08-21T14:12:15;3.95;;;1.88;;
18405;SDS011;9329;48.720;9.588;2022-08-21T14:14:46;6.80;;;1.70;;
18405;SDS011;9329;48.720;9.588;2022-08-21T14:17:14;2.33;;;1.55;;
18405;SDS011;9329;48.720;9.588;2022-08-21T14:19:59;2.85;;;1.70;;
18405;SDS011;9329;48.720;9.588;2022-08-21T14:22:36;4.50;;;1.90;;
18405;SDS011;9329;48.720;9.588;2022-08-21T14:25:06;6.10;;;1.80;;
18405;SDS011;9329;48.720;9.588;2022-08-21T14:27:36;3.22;;;1.60;;
18405;SDS011;9329;48.720;9.588;2022-08-21T14:30:10;3.40;;;1.70;;
18405;SDS011;9329;48.720;9.588;2022-08-21T14:32:39;2.90;;;1.70;;
18405;SDS011;9329;48.720;9.588;2022-08-21T14:35:07;2.63;;;1.42;;
18405;SDS011;9329;48.720;9.588;2022-08-21T14:37:35;2.88;;;1.50;;
18405;SDS011;9329;48.720;9.588;2022-08-21T14:40:03;4.25;;;1.67;;
18405;SDS011;9329;48.720;9.588;2022-08-21T14:42:31;3.60;;;1.50;;
18405;SDS011;9329;48.720;9.588;2022-08-21T14:45:00;5.03;;;1.50;;
18405;SDS011;9329;48.720;9.588;2022-08-21T14:47:33;4.57;;;1.67;;
18405;SDS011;9329;48.720;9.588;2022-08-21T14:50:02;2.43;;;1.40;;
18405;SDS011;9329;48.720;9.588;2022-08-21T14:52:29;3.22;;;1.60;;
18405;SDS011;9329;48.720;9.588;2022-08-21T14:54:57;2.70;;;1.50;;
18405;SDS011;9329;48.720;9.588;2022-08-21T14:57:24;3.22;;;1.60;;
18405;SDS011;9329;48.720;9.588;2022-08-21T14:59:55;4.50;;;1.47;;
18405;SDS011;9329;48.720;9.588;2022-08-21T15:02:22;3.70;;;1.43;;
18405;SDS011;9329;48.720;9.588;2022-08-21T15:04:51;3.00;;;1.60;;
18405;SDS011;9329;48.720;9.588;2022-08-21T15:07:18;4.90;;;1.67;;
18405;SDS011;9329;48.720;9.588;2022-08-21T15:09:45;3.67;;;1.67;;
18405;SDS011;9329;48.720;9.588;2022-08-21T15:12:12;3.20;;;1.58;;
18405;SDS011;9329;48.720;9.588;2022-08-21T15:14:40;3.22;;;1.50;;
18405;SDS011;9329;48.720;9.588;2022-08-21T15:17:08;2.33;;;1.57;;
18405;SDS011;9329;48.720;9.588;2022-08-21T15:19:40;3.33;;;1.60;;
18405;SDS011;9329;48.720;9.588;2022-08-21T15:22:08;2.33;;;1.43;;
18405;SDS011;9329;48.720;9.588;2022-08-21T15:24:36;3.78;;;1.60;;
18405;SDS011;9329;48.720;9.588;2022-08-21T15:27:03;3.50;;;1.40;;
18405;SDS011;9329;48.720;9.588;2022-08-21T15:29:33;1.95;;;1.30;;
18405;SDS011;9329;48.720;9.588;2022-08-21T15:32:02;2.55;;;1.45;;